Time;durP1;ratioP1;P1;durP2;ratioP2;P2;SDS_P1;SDS_P2;PMS_P1;PMS_P2;Temp;Humidity;BMP_temperature;BMP_pressure;BME280_temperature;BME280_humidity;BME280_pressure;Samples;Min_cycle;Max_cycle;Signal;HPM_P1;HPM_P2
2021/05/24 00:00:11;;;;;;;8.23;6.50;;;9.70;1.00;;;;;;5044306;28;20448;-62
2021/05/24 00:02:38;;;;;;;7.20;6.60;;;9.70;1.00;;;;;;5041383;28;20426;-62
2021/05/24 00:05:06;;;;;;;6.83;6.30;;;9.70;1.00;;;;;;5046532;28;20539;-63
2021/05/24 00:07:31;;;;;;;7.13;6.53;;;9.70;1.00;;;;;;5047601;28;20435;-60
2021/05/24 00:09:57;;;;;;;7.17;6.57;;;9.60;1.00;;;;;;5047292;28;20443;-60
2021/05/24 00:12:26;;;;;;;6.33;5.83;;;9.50;1.00;;;;;;5048140;28;20174;-61
2021/05/24 00:14:55;;;;;;;6.40;5.90;;;9.50;1.00;;;;;;5046251;28;20265;-61
2021/05/24 00:17:21;;;;;;;7.70;6.60;;;9.40;1.00;;;;;;5046979;28;20460;-60
2021/05/24 00:19:47;;;;;;;7.17;6.47;;;9.40;1.00;;;;;;5049803;28;20432;-61
2021/05/24 00:22:13;;;;;;;6.50;5.90;;;9.30;1.00;;;;;;5050895;28;20511;-61
2021/05/24 00:24:38;;;;;;;6.27;5.67;;;9.40;1.00;;;;;;5050365;28;20182;-64
2021/05/24 00:27:04;;;;;;;5.40;5.00;;;9.30;1.00;;;;;;5052368;28;20405;-61
2021/05/24 00:29:30;;;;;;;5.80;5.30;;;9.30;1.00;;;;;;5049010;28;20624;-61
2021/05/24 00:31:55;;;;;;;6.50;5.90;;;9.20;1.00;;;;;;5049991;28;20436;-60
2021/05/24 00:34:21;;;;;;;4.90;4.50;;;9.30;1.00;;;;;;5054092;28;20295;-60
2021/05/24 00:36:47;;;;;;;5.13;4.63;;;9.30;1.00;;;;;;5048400;28;20194;-63
2021/05/24 00:39:12;;;;;;;4.90;4.37;;;9.30;1.00;;;;;;5051985;28;20173;-62
2021/05/24 00:41:39;;;;;;;4.93;4.40;;;9.30;1.00;;;;;;5050272;28;20185;-62
2021/05/24 00:44:06;;;;;;;4.93;4.53;;;9.30;1.00;;;;;;5049551;28;20274;-60
2021/05/24 00:46:33;;;;;;;4.70;4.20;;;9.30;1.00;;;;;;5050762;28;20443;-61
2021/05/24 00:48:59;;;;;;;4.90;4.50;;;9.20;1.00;;;;;;5050887;28;20519;-62
2021/05/24 00:51:25;;;;;;;4.97;4.57;;;9.10;1.00;;;;;;5048942;28;20562;-60
2021/05/24 00:53:50;;;;;;;4.80;4.40;;;9.20;1.00;;;;;;5050373;28;20506;-60
2021/05/24 00:56:16;;;;;;;4.43;4.07;;;9.10;1.00;;;;;;5043098;28;20520;-62
2021/05/24 00:58:42;;;;;;;4.77;4.37;;;9.10;1.00;;;;;;5053645;28;20194;-61
2021/05/24 01:01:07;;;;;;;3.90;3.60;;;9.10;1.00;;;;;;5048295;28;20991;-60
2021/05/24 01:03:33;;;;;;;4.77;4.37;;;9.00;1.00;;;;;;5049193;28;20203;-60
2021/05/24 01:05:59;;;;;;;4.47;4.07;;;9.00;1.00;;;;;;5050100;28;20178;-60
2021/05/24 01:08:24;;;;;;;4.60;4.23;;;9.10;1.00;;;;;;5049884;28;20440;-60
2021/05/24 01:10:50;;;;;;;5.33;4.83;;;9.10;1.00;;;;;;5050336;28;20921;-60
2021/05/24 01:13:16;;;;;;;4.70;4.40;;;9.10;1.00;;;;;;5049286;28;20185;-60
2021/05/24 01:15:42;;;;;;;4.97;4.50;;;9.00;1.00;;;;;;5048583;28;20181;-61
2021/05/24 01:18:09;;;;;;;4.83;4.43;;;8.90;1.00;;;;;;5047861;28;20463;-60
2021/05/24 01:20:35;;;;;;;5.30;4.57;;;8.80;7.80;;;;;;5050181;28;20431;-60
2021/05/24 01:25:27;;;;;;;4.50;4.20;;;8.80;21.80;;;;;;5050216;28;20440;-59
2021/05/24 01:27:53;;;;;;;4.97;4.57;;;8.70;27.60;;;;;;5050052;28;20481;-61
2021/05/24 01:30:20;;;;;;;5.50;4.97;;;8.70;30.80;;;;;;5049611;28;20208;-60
2021/05/24 01:32:46;;;;;;;7.40;4.60;;;8.70;34.60;;;;;;5047304;28;20213;-60
2021/05/24 01:35:12;;;;;;;4.93;4.43;;;8.70;36.60;;;;;;5047194;28;20528;-60
2021/05/24 01:37:37;;;;;;;5.40;4.63;;;8.60;38.80;;;;;;5047234;28;20229;-60
2021/05/24 01:40:04;;;;;;;5.60;4.90;;;8.60;44.70;;;;;;5050564;28;20412;-60
2021/05/24 01:42:30;;;;;;;5.07;4.63;;;8.60;46.60;;;;;;5049826;28;20271;-60
2021/05/24 01:44:56;;;;;;;5.37;4.87;;;8.60;50.70;;;;;;5049951;28;20817;-60
2021/05/24 01:47:22;;;;;;;5.27;4.43;;;8.60;49.00;;;;;;5048009;28;20432;-59
2021/05/24 01:49:47;;;;;;;5.60;5.10;;;8.60;50.30;;;;;;5050004;28;20169;-60
2021/05/24 01:52:16;;;;;;;4.77;4.37;;;8.50;54.80;;;;;;5047940;28;20193;-60
2021/05/24 01:54:43;;;;;;;4.90;4.40;;;8.50;56.60;;;;;;5049365;28;20189;-60
2021/05/24 01:57:09;;;;;;;5.27;4.77;;;8.50;59.50;;;;;;5047687;28;20470;-60
2021/05/24 01:59:35;;;;;;;6.43;5.17;;;8.40;60.70;;;;;;5050316;28;20863;-62
2021/05/24 02:02:01;;;;;;;5.53;5.13;;;8.40;63.30;;;;;;5048113;28;20762;-60
2021/05/24 02:04:28;;;;;;;5.03;4.60;;;8.40;70.00;;;;;;5047984;28;20435;-60
2021/05/24 02:06:53;;;;;;;5.70;4.70;;;8.30;72.70;;;;;;5048281;28;20185;-61
2021/05/24 02:09:19;;;;;;;5.23;4.80;;;8.30;75.70;;;;;;5042972;28;20442;-60
2021/05/24 02:11:45;;;;;;;5.50;5.00;;;8.20;80.80;;;;;;5048018;28;20182;-59
2021/05/24 02:14:10;;;;;;;6.03;5.47;;;8.20;82.40;;;;;;5032668;28;20713;-61
2021/05/24 02:16:40;;;;;;;5.53;5.03;;;8.20;83.30;;;;;;5048935;28;20182;-61
2021/05/24 02:19:10;;;;;;;5.57;5.17;;;8.20;89.80;;;;;;5048347;28;20208;-58
2021/05/24 02:21:40;;;;;;;5.60;5.10;;;8.20;92.80;;;;;;5043344;28;20451;-60
2021/05/24 02:24:09;;;;;;;6.73;5.40;;;8.20;95.80;;;;;;5048881;28;20422;-60
2021/05/24 02:26:36;;;;;;;5.53;5.00;;;8.10;97.50;;;;;;5048314;28;20534;-61
2021/05/24 02:29:03;;;;;;;5.93;5.40;;;8.10;99.90;;;;;;5047597;28;20808;-60
2021/05/24 02:31:28;;;;;;;6.20;5.60;;;8.10;99.90;;;;;;5047581;28;20432;-61
2021/05/24 02:33:54;;;;;;;5.53;5.03;;;8.20;99.90;;;;;;5049404;28;20443;-61
2021/05/24 02:36:24;;;;;;;5.47;4.97;;;8.10;99.90;;;;;;5047318;28;20200;-61
2021/05/24 02:38:50;;;;;;;6.30;5.37;;;8.20;99.90;;;;;;5039061;28;20202;-60
2021/05/24 02:41:16;;;;;;;5.07;4.57;;;8.20;99.90;;;;;;5047259;28;20443;-61
2021/05/24 02:43:41;;;;;;;5.30;4.90;;;8.20;99.90;;;;;;5050203;28;20773;-61
2021/05/24 02:46:07;;;;;;;6.03;5.43;;;8.20;99.90;;;;;;5047246;28;20769;-61
2021/05/24 02:48:33;;;;;;;5.80;5.30;;;8.20;99.90;;;;;;5048419;28;20207;-61
2021/05/24 02:50:58;;;;;;;5.77;4.93;;;8.20;99.90;;;;;;5047314;28;20181;-61
2021/05/24 02:53:24;;;;;;;7.03;5.03;;;8.10;99.90;;;;;;5047989;28;20780;-61
2021/05/24 02:55:50;;;;;;;4.90;4.50;;;8.20;99.90;;;;;;5045845;28;20634;-61
2021/05/24 02:58:16;;;;;;;5.70;5.30;;;8.20;99.90;;;;;;5046876;28;20574;-61
2021/05/24 03:00:41;;;;;;;5.40;5.00;;;8.10;99.90;;;;;;5047156;28;20435;-61
2021/05/24 03:03:08;;;;;;;5.70;5.20;;;8.00;99.90;;;;;;5045788;28;20189;-61
2021/05/24 03:05:34;;;;;;;5.60;5.10;;;8.00;99.90;;;;;;5046413;28;20937;-61
2021/05/24 03:08:00;;;;;;;6.70;5.67;;;8.00;99.90;;;;;;5041429;28;20570;-61
2021/05/24 03:10:26;;;;;;;5.90;5.30;;;8.00;99.90;;;;;;5046615;28;20189;-61
2021/05/24 03:12:53;;;;;;;6.50;5.67;;;8.00;99.90;;;;;;5045857;28;20988;-61
2021/05/24 03:15:20;;;;;;;7.43;5.50;;;7.90;99.90;;;;;;5047098;28;20944;-62
2021/05/24 03:17:46;;;;;;;5.93;5.43;;;7.90;99.90;;;;;;5047127;28;20616;-60
2021/05/24 03:20:13;;;;;;;7.47;5.77;;;7.90;99.90;;;;;;5046579;28;20456;-61
2021/05/24 03:22:39;;;;;;;6.03;5.50;;;8.00;99.90;;;;;;5046187;28;20990;-61
2021/05/24 03:25:06;;;;;;;5.80;5.27;;;8.00;99.90;;;;;;5046835;28;20909;-64
2021/05/24 03:27:31;;;;;;;6.37;5.77;;;8.00;99.90;;;;;;5047078;28;20484;-61
2021/05/24 03:29:57;;;;;;;5.60;5.10;;;8.00;99.90;;;;;;5047156;28;20435;-61
2021/05/24 03:32:22;;;;;;;6.00;5.23;;;8.00;99.90;;;;;;5045584;28;20283;-61
2021/05/24 03:34:48;;;;;;;6.37;5.77;;;8.00;99.90;;;;;;5046116;28;20332;-59
2021/05/24 03:37:13;;;;;;;5.37;4.90;;;8.00;99.90;;;;;;5046816;28;20216;-62
2021/05/24 03:39:39;;;;;;;7.13;6.53;;;8.00;99.90;;;;;;5047472;28;20177;-61
2021/05/24 03:42:05;;;;;;;6.80;6.00;;;8.00;99.90;;;;;;5045245;28;20193;-61
2021/05/24 03:44:31;;;;;;;5.90;5.30;;;8.00;99.90;;;;;;5048383;28;20326;-61
2021/05/24 03:46:57;;;;;;;6.10;5.60;;;8.00;99.90;;;;;;5045264;28;20438;-61
2021/05/24 03:49:22;;;;;;;6.17;5.67;;;8.10;99.90;;;;;;5048248;28;20430;-61
2021/05/24 03:51:48;;;;;;;5.50;5.00;;;8.10;99.90;;;;;;5047432;28;20633;-61
2021/05/24 03:54:13;;;;;;;6.03;5.47;;;8.20;99.90;;;;;;5052923;28;20185;-61
2021/05/24 03:56:39;;;;;;;6.07;5.40;;;8.20;99.90;;;;;;5051603;28;20196;-61
2021/05/24 03:59:05;;;;;;;5.33;4.83;;;8.30;99.90;;;;;;5050341;28;20251;-60
2021/05/24 04:01:32;;;;;;;5.60;5.10;;;8.30;99.90;;;;;;5050920;28;20193;-61
2021/05/24 04:03:57;;;;;;;5.33;4.93;;;8.30;99.90;;;;;;5056130;28;20615;-61
2021/05/24 04:06:26;;;;;;;6.10;5.50;;;8.30;99.90;;;;;;5051566;28;20462;-62
2021/05/24 04:08:51;;;;;;;6.70;5.30;;;8.40;99.90;;;;;;5042471;28;20241;-61
2021/05/24 04:11:17;;;;;;;5.80;5.30;;;8.40;99.90;;;;;;5045413;28;20442;-62
2021/05/24 04:13:49;;;;;;;5.73;5.23;;;8.50;99.90;;;;;;5052020;28;20204;-60
2021/05/24 04:16:15;;;;;;;5.17;4.77;;;8.50;99.90;;;;;;5050660;28;20190;-61
2021/05/24 04:18:45;;;;;;;5.10;4.63;;;8.60;99.90;;;;;;5051805;28;20978;-61
2021/05/24 04:21:11;;;;;;;4.80;4.40;;;8.60;99.90;;;;;;5051035;28;20189;-61
2021/05/24 04:23:36;;;;;;;4.60;4.20;;;8.70;99.90;;;;;;5050241;28;20480;-63
2021/05/24 04:26:02;;;;;;;5.67;5.07;;;8.70;99.90;;;;;;5051204;28;20953;-61
2021/05/24 04:28:28;;;;;;;5.57;4.97;;;8.80;99.90;;;;;;5051815;28;20216;-61
2021/05/24 04:30:53;;;;;;;4.77;4.37;;;8.80;99.90;;;;;;5050701;28;20555;-61
2021/05/24 04:33:19;;;;;;;5.70;5.00;;;8.90;99.90;;;;;;5051308;28;20200;-61
2021/05/24 04:35:44;;;;;;;4.80;4.40;;;9.00;99.90;;;;;;5049960;28;20178;-61
2021/05/24 04:38:10;;;;;;;4.80;4.40;;;9.10;98.60;;;;;;5050991;28;20213;-61
2021/05/24 04:40:35;;;;;;;4.90;4.50;;;9.30;95.70;;;;;;5050800;28;20276;-61
2021/05/24 04:43:01;;;;;;;4.70;4.23;;;9.40;92.60;;;;;;5047679;28;20178;-61
2021/05/24 04:45:26;;;;;;;5.03;4.53;;;9.50;87.50;;;;;;5050279;28;20312;-61
2021/05/24 04:47:52;;;;;;;5.00;4.50;;;9.60;73.50;;;;;;5051544;28;20272;-61
2021/05/24 04:50:18;;;;;;;4.77;4.30;;;9.70;66.60;;;;;;5051416;28;20197;-61
2021/05/24 04:52:43;;;;;;;4.77;4.37;;;9.80;66.20;;;;;;5049631;28;20208;-61
2021/05/24 04:55:10;;;;;;;4.10;3.80;;;9.90;58.40;;;;;;5051340;28;20510;-61
2021/05/24 04:57:36;;;;;;;4.63;4.23;;;10.10;55.80;;;;;;5050204;28;20206;-61
2021/05/24 05:00:04;;;;;;;4.53;4.13;;;10.20;50.70;;;;;;5048284;28;20451;-61
2021/05/24 05:02:29;;;;;;;4.70;4.20;;;10.30;40.50;;;;;;5049606;28;20178;-61
2021/05/24 05:04:56;;;;;;;4.70;4.30;;;10.40;39.00;;;;;;5047777;28;20435;-61
2021/05/24 05:07:22;;;;;;;4.90;4.40;;;10.50;37.20;;;;;;5050623;28;20502;-61
2021/05/24 05:09:47;;;;;;;4.80;4.40;;;10.60;28.20;;;;;;5040608;28;20922;-61
2021/05/24 05:12:13;;;;;;;4.37;4.03;;;10.70;26.10;;;;;;5051169;28;20454;-62
2021/05/24 05:14:38;;;;;;;4.73;4.33;;;10.90;21.00;;;;;;5049496;28;20192;-62
2021/05/24 05:17:04;;;;;;;4.40;4.00;;;11.00;18.20;;;;;;5050068;28;20178;-62
2021/05/24 05:19:30;;;;;;;4.13;3.83;;;11.10;9.10;;;;;;5048975;28;20547;-62
2021/05/24 05:21:55;;;;;;;4.20;3.80;;;11.30;1.00;;;;;;5050276;28;20703;-62
2021/05/24 05:24:21;;;;;;;4.57;4.17;;;11.40;1.00;;;;;;5050456;28;20205;-61
2021/05/24 05:26:46;;;;;;;4.53;4.20;;;11.40;1.00;;;;;;5050353;28;20174;-62
2021/05/24 05:29:12;;;;;;;3.90;3.60;;;11.60;1.00;;;;;;5049833;28;20193;-63
2021/05/24 05:31:38;;;;;;;3.80;3.50;;;11.70;1.00;;;;;;5048226;28;20178;-62
2021/05/24 05:34:04;;;;;;;4.30;3.90;;;11.90;1.00;;;;;;5049683;28;20200;-62
2021/05/24 05:36:30;;;;;;;3.93;3.63;;;11.90;1.00;;;;;;5049333;28;20534;-62
2021/05/24 05:38:56;;;;;;;7.00;3.90;;;12.00;1.00;;;;;;5049428;28;20460;-62
2021/05/24 05:41:21;;;;;;;3.70;3.40;;;12.10;1.00;;;;;;5049196;28;20190;-62
2021/05/24 05:43:47;;;;;;;4.10;3.80;;;12.10;1.00;;;;;;5042116;28;20627;-62
2021/05/24 05:46:13;;;;;;;4.23;3.90;;;12.20;1.00;;;;;;5048305;28;20428;-62
2021/05/24 05:48:39;;;;;;;4.60;3.80;;;12.30;1.00;;;;;;5049297;28;20208;-62
2021/05/24 05:51:05;;;;;;;4.20;3.90;;;12.30;1.00;;;;;;5049210;28;20197;-63
2021/05/24 05:53:32;;;;;;;4.10;3.80;;;12.40;1.00;;;;;;5049409;28;20996;-63
2021/05/24 05:55:58;;;;;;;3.77;3.47;;;12.60;99.90;;;;;;5049361;28;20265;-63
2021/05/24 05:58:23;;;;;;;3.90;3.50;;;12.70;99.90;;;;;;5048761;28;20586;-63
2021/05/24 06:00:49;;;;;;;3.60;3.37;;;12.80;99.90;;;;;;5047350;28;20185;-63
2021/05/24 06:03:15;;;;;;;4.40;4.00;;;12.80;99.90;;;;;;5048404;28;20192;-63
2021/05/24 06:05:41;;;;;;;4.37;4.03;;;13.00;1.00;;;;;;5048906;28;20263;-63
2021/05/24 06:08:07;;;;;;;4.03;3.63;;;13.10;1.00;;;;;;5047289;28;20435;-61
2021/05/24 06:10:32;;;;;;;4.20;3.70;;;13.20;1.00;;;;;;5047899;28;21037;-62
2021/05/24 06:12:59;;;;;;;4.40;4.00;;;13.20;1.00;;;;;;5047022;28;20237;-62
2021/05/24 06:15:24;;;;;;;4.10;3.73;;;13.40;1.00;;;;;;5046528;28;20187;-62
2021/05/24 06:17:50;;;;;;;4.23;3.90;;;13.40;33.30;;;;;;5050446;28;20965;-62
2021/05/24 06:20:16;;;;;;;3.70;3.40;;;13.50;1.00;;;;;;5048175;28;20184;-62
2021/05/24 06:22:42;;;;;;;4.30;4.00;;;13.50;1.00;;;;;;5048502;28;20267;-62
2021/05/24 06:25:09;;;;;;;4.60;4.20;;;13.70;1.00;;;;;;5048130;28;20540;-64
2021/05/24 06:27:36;;;;;;;4.30;3.93;;;13.80;44.80;;;;;;5048257;28;20249;-63
2021/05/24 06:30:06;;;;;;;4.93;4.27;;;13.80;99.90;;;;;;5047644;28;20430;-62
2021/05/24 06:32:32;;;;;;;4.20;3.90;;;13.80;1.00;;;;;;5034946;28;20414;-62
2021/05/24 06:34:57;;;;;;;4.70;4.30;;;13.80;99.90;;;;;;5046749;28;20776;-62
2021/05/24 06:37:23;;;;;;;4.70;4.30;;;13.90;99.90;;;;;;5049111;28;20210;-62
2021/05/24 06:39:49;;;;;;;4.67;4.33;;;13.90;1.00;;;;;;5046701;28;20266;-62
2021/05/24 06:42:14;;;;;;;4.90;4.40;;;13.90;1.00;;;;;;5047530;28;20179;-63
2021/05/24 06:44:40;;;;;;;4.57;4.17;;;13.90;1.00;;;;;;5046862;28;20234;-62
2021/05/24 06:47:05;;;;;;;4.40;4.10;;;13.90;99.90;;;;;;5047588;28;20619;-63
2021/05/24 06:49:32;;;;;;;4.40;3.90;;;14.00;99.90;;;;;;5047594;28;20553;-63
2021/05/24 06:51:58;;;;;;;5.60;4.43;;;14.00;1.00;;;;;;5038387;28;20669;-63
2021/05/24 06:54:24;;;;;;;4.57;3.90;;;14.10;14.30;;;;;;5037667;28;20435;-63
2021/05/24 06:56:49;;;;;;;4.70;4.30;;;14.20;99.90;;;;;;5039745;28;20748;-63
2021/05/24 06:59:15;;;;;;;5.90;4.97;;;14.20;99.90;;;;;;5037422;28;20364;-64
2021/05/24 07:01:40;;;;;;;4.23;3.93;;;14.20;1.00;;;;;;5040875;28;20204;-64
2021/05/24 07:04:06;;;;;;;4.13;3.83;;;14.30;1.00;;;;;;5038377;28;20224;-64
2021/05/24 07:06:32;;;;;;;4.40;4.00;;;14.20;1.00;;;;;;5040572;28;20180;-64
2021/05/24 07:08:57;;;;;;;4.80;4.40;;;14.30;1.00;;;;;;5039315;28;20432;-63
2021/05/24 07:11:24;;;;;;;5.20;4.70;;;14.30;1.00;;;;;;5038741;28;20197;-63
2021/05/24 07:13:50;;;;;;;5.67;5.17;;;14.50;1.00;;;;;;5036906;28;20716;-63
2021/05/24 07:16:16;;;;;;;5.73;4.07;;;14.60;99.90;;;;;;5037846;28;20466;-63
2021/05/24 07:18:41;;;;;;;5.27;4.77;;;14.70;1.00;;;;;;5038508;28;20518;-63
2021/05/24 07:21:07;;;;;;;4.77;4.37;;;14.80;99.90;;;;;;5037399;28;20436;-62
2021/05/24 07:23:32;;;;;;;4.70;4.30;;;14.80;4.90;;;;;;5039718;28;20192;-61
2021/05/24 07:25:58;;;;;;;4.83;4.43;;;14.90;99.90;;;;;;5036235;28;21157;-61
2021/05/24 07:28:24;;;;;;;5.40;4.80;;;15.00;99.90;;;;;;5040777;28;20189;-62
2021/05/24 07:30:50;;;;;;;4.97;4.53;;;15.10;1.00;;;;;;5043843;28;20459;-62
2021/05/24 07:33:15;;;;;;;5.00;4.60;;;15.10;1.00;;;;;;5042453;28;20193;-61
2021/05/24 07:35:41;;;;;;;5.00;4.60;;;15.10;1.00;;;;;;5041829;28;20239;-62
2021/05/24 07:38:08;;;;;;;5.30;4.20;;;15.20;1.00;;;;;;5043347;28;20942;-61
2021/05/24 07:40:34;;;;;;;4.93;4.53;;;15.40;1.00;;;;;;5042996;28;20192;-61
2021/05/24 07:43:00;;;;;;;4.80;4.40;;;15.50;1.00;;;;;;5043835;28;20428;-52
2021/05/24 07:45:25;;;;;;;5.17;4.67;;;15.50;1.00;;;;;;5041850;28;20483;-52
2021/05/24 07:47:51;;;;;;;4.37;4.07;;;15.70;99.90;;;;;;5042708;28;20302;-53
2021/05/24 07:50:16;;;;;;;4.90;4.50;;;15.80;99.90;;;;;;5038880;28;20193;-52
2021/05/24 07:52:42;;;;;;;4.53;4.13;;;16.00;1.00;;;;;;5043613;28;20528;-49
2021/05/24 07:55:08;;;;;;;4.30;4.00;;;16.10;1.00;;;;;;5038834;28;20192;-52
2021/05/24 07:57:37;;;;;;;5.63;4.67;;;16.20;99.90;;;;;;5043274;28;20211;-49
2021/05/24 08:00:06;;;;;;;6.17;4.00;;;16.10;99.90;;;;;;5048518;28;20443;-51
2021/05/24 08:02:32;;;;;;;4.60;4.30;;;16.30;99.90;;;;;;5042946;28;20441;-52
2021/05/24 08:04:57;;;;;;;4.53;4.23;;;16.50;99.90;;;;;;5052897;28;20912;-54
2021/05/24 08:07:23;;;;;;;4.20;3.90;;;16.60;1.00;;;;;;5042913;28;20199;-54
2021/05/24 08:09:50;;;;;;;4.63;4.23;;;16.70;1.00;;;;;;5048025;28;20202;-50
2021/05/24 08:12:15;;;;;;;4.73;4.37;;;16.50;1.00;;;;;;5037694;28;20185;-53
2021/05/24 08:14:41;;;;;;;5.13;4.70;;;16.50;1.00;;;;;;5045542;28;20477;-52
2021/05/24 08:17:06;;;;;;;5.60;4.40;;;16.40;1.00;;;;;;5052343;28;20219;-55
2021/05/24 08:19:32;;;;;;;4.60;4.30;;;16.40;1.00;;;;;;5051113;28;20261;-51
2021/05/24 08:21:57;;;;;;;4.13;3.83;;;16.40;1.00;;;;;;5051035;28;20177;-53
2021/05/24 08:24:23;;;;;;;4.47;4.10;;;16.30;1.00;;;;;;5050153;28;20216;-52
2021/05/24 08:26:48;;;;;;;4.40;4.00;;;16.40;1.00;;;;;;5045670;28;20170;-51
2021/05/24 08:29:14;;;;;;;4.97;4.57;;;16.60;1.00;;;;;;5051414;28;20185;-55
2021/05/24 08:31:41;;;;;;;4.13;3.83;;;16.80;99.90;;;;;;5054527;28;20197;-51
2021/05/24 08:34:07;;;;;;;5.23;4.73;;;16.90;99.90;;;;;;5050097;28;20481;-53
2021/05/24 08:36:33;;;;;;;4.40;4.10;;;16.90;99.90;;;;;;5047609;28;20439;-54
2021/05/24 08:38:59;;;;;;;5.00;4.63;;;17.00;99.90;;;;;;5047902;28;20463;-53
2021/05/24 08:41:25;;;;;;;4.67;4.30;;;17.10;99.90;;;;;;5049351;28;20423;-52
2021/05/24 08:43:51;;;;;;;4.30;4.00;;;17.20;99.90;;;;;;5049256;28;20256;-55
2021/05/24 08:46:16;;;;;;;4.20;4.00;;;17.30;99.90;;;;;;5048858;28;20463;-51
2021/05/24 08:48:43;;;;;;;3.70;3.43;;;17.40;99.90;;;;;;5047477;28;20192;-50
2021/05/24 08:51:09;;;;;;;4.23;3.93;;;17.60;99.90;;;;;;5049824;28;20585;-51
2021/05/24 08:53:39;;;;;;;4.70;4.20;;;17.70;95.10;;;;;;5049296;28;20441;-54
2021/05/24 08:56:06;;;;;;;4.07;3.77;;;17.90;10.90;;;;;;5047576;28;20427;-57
2021/05/24 08:58:32;;;;;;;4.93;4.53;;;18.00;1.00;;;;;;5048549;28;20474;-54
2021/05/24 09:00:57;;;;;;;4.43;4.13;;;18.00;1.00;;;;;;5049513;28;20539;-55
2021/05/24 09:03:31;;;;;;;4.43;4.03;;;18.10;1.00;;;;;;5048596;28;20193;-51
2021/05/24 09:05:59;;;;;;;4.50;4.20;;;18.10;1.00;;;;;;5051131;28;20685;-55
2021/05/24 09:08:42;;;;;;;3.70;3.50;;;18.10;1.00;;;;;;5048146;28;20764;-53
2021/05/24 09:11:31;;;;;;;4.03;3.73;;;18.30;1.00;;;;;;5047606;28;20779;-54
2021/05/24 09:13:57;;;;;;;3.90;3.60;;;18.70;1.00;;;;;;5057593;28;20439;-54
2021/05/24 09:16:36;;;;;;;4.27;3.97;;;18.80;1.00;;;;;;5048665;28;20987;-52
2021/05/24 09:19:19;;;;;;;3.60;3.40;;;19.00;1.00;;;;;;5048306;28;20561;-54
2021/05/24 09:21:52;;;;;;;4.10;3.70;;;19.00;1.00;;;;;;5049162;28;20451;-51
2021/05/24 09:24:23;;;;;;;3.33;3.13;;;19.30;1.00;;;;;;5045049;28;20929;-51
2021/05/24 09:26:50;;;;;;;3.30;3.10;;;19.60;1.00;;;;;;5051223;28;20770;-53
2021/05/24 09:29:22;;;;;;;3.63;3.33;;;19.80;1.00;;;;;;5049431;28;20857;-54
2021/05/24 09:31:47;;;;;;;3.40;3.20;;;20.10;1.00;;;;;;5047609;28;20443;-54
2021/05/24 09:34:22;;;;;;;4.77;3.93;;;20.70;1.00;;;;;;5047051;28;20494;-53
2021/05/24 09:36:59;;;;;;;3.77;3.57;;;21.20;99.90;;;;;;5047813;28;20698;-54
2021/05/24 09:39:30;;;;;;;3.87;3.57;;;21.80;99.90;;;;;;5046938;28;20447;-58
2021/05/24 09:42:00;;;;;;;3.50;3.30;;;22.00;99.90;;;;;;5047145;28;20436;-53
2021/05/24 09:44:27;;;;;;;3.30;3.10;;;22.00;99.90;;;;;;5048697;28;21237;-55
2021/05/24 09:46:54;;;;;;;3.20;3.00;;;22.20;99.90;;;;;;5047667;28;20471;-51
2021/05/24 09:49:30;;;;;;;3.30;3.07;;;22.30;99.90;;;;;;5047716;28;20555;-50
2021/05/24 09:51:58;;;;;;;3.53;3.33;;;22.20;99.90;;;;;;5048866;28;20438;-50
2021/05/24 09:54:31;;;;;;;2.93;2.73;;;22.40;99.90;;;;;;5050205;28;20424;-55
2021/05/24 09:56:59;;;;;;;3.50;3.30;;;22.30;99.90;;;;;;5048416;28;20447;-51
2021/05/24 09:59:26;;;;;;;2.57;2.47;;;22.70;99.90;;;;;;5049744;28;20420;-50
2021/05/24 10:01:57;;;;;;;2.80;2.70;;;22.70;99.90;;;;;;5048976;28;20435;-56
2021/05/24 10:04:24;;;;;;;3.10;2.90;;;22.70;99.90;;;;;;5050218;28;20795;-49
2021/05/24 10:06:51;;;;;;;3.33;3.13;;;22.80;99.90;;;;;;5049111;28;20428;-52
2021/05/24 10:09:18;;;;;;;4.10;3.00;;;23.60;99.90;;;;;;5048094;28;20446;-54
2021/05/24 10:11:46;;;;;;;2.93;2.70;;;24.00;99.90;;;;;;5040578;28;20458;-54
2021/05/24 10:14:13;;;;;;;3.00;2.90;;;24.30;99.90;;;;;;5057899;28;20453;-54
2021/05/24 10:16:45;;;;;;;2.90;2.70;;;24.80;99.90;;;;;;5038861;28;20447;-50
2021/05/24 10:19:12;;;;;;;4.00;2.53;;;25.40;99.90;;;;;;5048645;28;20468;-52
2021/05/24 10:21:39;;;;;;;3.30;3.10;;;25.40;99.90;;;;;;5049093;28;20452;-54
2021/05/24 10:24:06;;;;;;;2.77;2.57;;;24.90;99.90;;;;;;5048675;28;20443;-49
2021/05/24 10:26:32;;;;;;;2.67;2.57;;;24.60;99.90;;;;;;5048318;28;20985;-54
2021/05/24 10:29:01;;;;;;;2.67;2.57;;;25.30;99.90;;;;;;5047885;28;20559;-51
2021/05/24 10:31:29;;;;;;;2.90;2.70;;;25.10;99.90;;;;;;5049814;28;20439;-53
2021/05/24 10:34:07;;;;;;;2.70;2.60;;;24.70;99.90;;;;;;5049483;28;20756;-52
2021/05/24 10:36:33;;;;;;;2.77;2.60;;;24.60;99.90;;;;;;5047081;28;20440;-52
2021/05/24 10:39:13;;;;;;;2.97;2.87;;;24.50;99.90;;;;;;5048179;28;20463;-56
2021/05/24 10:42:00;;;;;;;5.90;2.60;;;24.40;99.90;;;;;;5044095;28;20701;-52
2021/05/24 10:44:47;;;;;;;2.63;2.50;;;24.80;99.90;;;;;;5047806;28;20476;-55
2021/05/24 10:47:24;;;;;;;2.87;2.67;;;25.10;99.90;;;;;;5046145;28;20443;-49
2021/05/24 10:50:07;;;;;;;3.17;2.90;;;25.30;99.90;;;;;;5042775;28;20453;-51
2021/05/24 10:52:33;;;;;;;3.37;2.97;;;25.30;99.90;;;;;;5041145;28;20436;-52
2021/05/24 10:55:00;;;;;;;2.90;2.80;;;24.90;99.90;;;;;;5039891;28;20540;-53
2021/05/24 10:57:30;;;;;;;3.00;2.80;;;24.20;99.90;;;;;;5033605;28;21028;-53
2021/05/24 10:59:57;;;;;;;3.73;2.80;;;24.40;99.90;;;;;;5034908;28;20445;-52
2021/05/24 11:02:23;;;;;;;3.17;2.97;;;25.10;99.90;;;;;;5038645;28;20435;-53
2021/05/24 11:04:58;;;;;;;2.93;2.83;;;25.70;99.90;;;;;;5036192;28;20512;-55
2021/05/24 11:07:34;;;;;;;3.00;2.80;;;25.60;99.90;;;;;;5042677;28;20295;-50
2021/05/24 11:10:16;;;;;;;2.60;2.50;;;25.40;99.90;;;;;;5041673;28;20432;-50
2021/05/24 11:12:53;;;;;;;2.90;2.80;;;24.40;99.90;;;;;;5035241;28;20436;-54
2021/05/24 11:15:31;;;;;;;3.33;3.13;;;23.90;99.90;;;;;;5037723;28;20477;-49
2021/05/24 11:20:34;;;;;;;3.27;3.07;;;23.70;99.90;;;;;;5044482;28;20579;-51
2021/05/24 11:25:59;;;;;;;4.63;3.27;;;23.60;99.90;;;;;;5045083;28;20443;-52
2021/05/24 11:28:36;;;;;;;3.03;2.83;;;23.60;99.90;;;;;;5044945;28;20424;-51
2021/05/24 11:31:16;;;;;;;3.20;2.90;;;23.20;99.90;;;;;;5044032;28;20470;-50
2021/05/24 11:33:48;;;;;;;3.30;3.10;;;23.10;99.90;;;;;;5047867;28;20416;-52
2021/05/24 11:36:16;;;;;;;3.10;2.80;;;23.10;99.90;;;;;;5046475;28;20440;-53
2021/05/24 11:39:12;;;;;;;2.90;2.80;;;22.70;99.90;;;;;;5047173;28;20479;-54
2021/05/24 11:42:19;;;;;;;3.20;2.93;;;22.70;99.90;;;;;;4992020;28;20443;-49
2021/05/24 11:44:46;;;;;;;3.17;2.97;;;22.70;99.90;;;;;;5045582;28;20467;-50
2021/05/24 11:47:18;;;;;;;3.83;3.53;;;23.00;99.90;;;;;;5043933;28;20429;-51
2021/05/24 11:49:55;;;;;;;3.40;3.20;;;23.40;99.90;;;;;;5045533;28;20898;-51
2021/05/24 11:52:23;;;;;;;3.40;3.10;;;23.80;99.90;;;;;;5047062;28;20438;-52
2021/05/24 11:54:50;;;;;;;3.30;3.10;;;24.30;99.90;;;;;;5046694;28;20412;-55
2021/05/24 11:57:18;;;;;;;2.83;2.73;;;24.70;99.90;;;;;;5044615;28;20527;-50
2021/05/24 11:59:44;;;;;;;3.07;2.87;;;24.30;99.90;;;;;;5055560;28;20430;-53
2021/05/24 12:02:11;;;;;;;2.80;2.60;;;24.80;99.90;;;;;;5048630;28;20543;-51
2021/05/24 12:04:41;;;;;;;2.63;2.53;;;25.40;99.90;;;;;;5045885;28;20428;-49
2021/05/24 12:07:11;;;;;;;3.17;2.97;;;25.70;99.90;;;;;;5042674;28;20953;-53
2021/05/24 12:09:47;;;;;;;3.20;3.00;;;25.60;99.90;;;;;;5047064;28;20515;-53
2021/05/24 12:12:14;;;;;;;3.20;3.00;;;25.40;99.90;;;;;;5044468;28;20432;-54
2021/05/24 12:14:42;;;;;;;3.50;3.30;;;25.90;99.90;;;;;;5047002;28;20420;-53
2021/05/24 12:17:12;;;;;;;3.60;3.30;;;26.00;99.90;;;;;;5047656;28;20586;-52
2021/05/24 12:19:39;;;;;;;2.77;2.57;;;26.30;99.90;;;;;;5046209;28;20442;-52
2021/05/24 12:22:06;;;;;;;2.93;2.83;;;26.20;99.90;;;;;;5046738;28;20471;-52
2021/05/24 12:24:43;;;;;;;3.63;3.43;;;26.60;99.90;;;;;;5048155;28;20428;-53
2021/05/24 12:27:10;;;;;;;3.00;2.90;;;27.00;99.90;;;;;;5046636;28;20509;-52
2021/05/24 12:30:07;;;;;;;2.90;2.80;;;27.40;99.90;;;;;;5049131;28;20482;-50
2021/05/24 12:32:35;;;;;;;3.33;3.20;;;27.80;99.90;;;;;;5035204;28;20798;-50
2021/05/24 12:35:10;;;;;;;3.37;3.10;;;27.40;99.90;;;;;;5049505;28;20440;-52
2021/05/24 12:37:39;;;;;;;2.90;2.70;;;28.00;99.90;;;;;;5046904;28;21314;-54
2021/05/24 12:40:10;;;;;;;3.43;3.33;;;28.40;99.90;;;;;;5048042;28;20478;-51
2021/05/24 12:42:41;;;;;;;3.97;3.77;;;28.40;99.90;;;;;;5048415;28;20428;-52
2021/05/24 12:45:09;;;;;;;3.50;3.33;;;27.90;99.90;;;;;;5045160;28;21323;-53
2021/05/24 12:47:35;;;;;;;4.00;3.70;;;27.40;99.90;;;;;;5041096;28;20439;-60
2021/05/24 12:50:15;;;;;;;3.90;3.47;;;27.50;99.90;;;;;;5030762;28;20462;-57
2021/05/24 12:52:42;;;;;;;3.23;3.03;;;27.40;99.90;;;;;;5041073;28;20196;-59
2021/05/24 12:55:13;;;;;;;4.33;3.93;;;27.60;99.90;;;;;;5039205;28;20451;-58
2021/05/24 12:57:41;;;;;;;4.37;3.70;;;28.10;99.90;;;;;;5040016;28;20507;-59
2021/05/24 13:00:07;;;;;;;4.30;4.00;;;28.40;99.90;;;;;;5040506;28;20447;-60
2021/05/24 13:02:33;;;;;;;4.10;3.80;;;28.40;99.90;;;;;;5040387;28;20460;-60